sensor_id;sensor_type;location;lat;lon;timestamp;P1;durP1;ratioP1;P2;durP2;ratioP2
3095;SDS011;1558;42.700;23.360;2022-08-07T09:17:15;9.98;;;9.27;;
3095;SDS011;1558;42.700;23.360;2022-08-07T09:20:17;9.50;;;8.80;;
3095;SDS011;1558;42.700;23.360;2022-08-07T09:23:03;10.02;;;9.27;;
3095;SDS011;1558;42.700;23.360;2022-08-07T09:26:03;9.43;;;8.73;;
3095;SDS011;1558;42.700;23.360;2022-08-07T09:28:46;8.63;;;8.07;;
3095;SDS011;1558;42.700;23.360;2022-08-07T09:31:41;10.90;;;9.57;;
3095;SDS011;1558;42.700;23.360;2022-08-07T09:34:21;9.13;;;8.40;;
3095;SDS011;1558;42.700;23.360;2022-08-07T09:36:56;11.00;;;10.10;;
3095;SDS011;1558;42.700;23.360;2022-08-07T09:39:37;9.68;;;9.07;;
3095;SDS011;1558;42.700;23.360;2022-08-07T09:42:26;9.63;;;8.85;;
3095;SDS011;1558;42.700;23.360;2022-08-07T09:45:06;9.20;;;8.40;;
3095;SDS011;1558;42.700;23.360;2022-08-07T09:48:02;9.00;;;8.40;;
3095;SDS011;1558;42.700;23.360;2022-08-07T09:50:51;8.52;;;7.95;;
3095;SDS011;1558;42.700;23.360;2022-08-07T09:53:26;8.52;;;7.93;;
3095;SDS011;1558;42.700;23.360;2022-08-07T09:56:18;8.85;;;8.25;;
3095;SDS011;1558;42.700;23.360;2022-08-07T09:59:09;9.48;;;8.40;;
3095;SDS011;1558;42.700;23.360;2022-08-07T10:02:15;8.38;;;7.68;;
3095;SDS011;1558;42.700;23.360;2022-08-07T10:05:22;8.45;;;7.85;;
3095;SDS011;1558;42.700;23.360;2022-08-07T10:11:36;10.93;;;9.95;;
3095;SDS011;1558;42.700;23.360;2022-08-07T10:17:33;8.50;;;7.90;;
3095;SDS011;1558;42.700;23.360;2022-08-07T10:20:31;9.75;;;9.15;;
3095;SDS011;1558;42.700;23.360;2022-08-07T10:23:24;10.23;;;9.52;;
3095;SDS011;1558;42.700;23.360;2022-08-07T10:26:45;10.05;;;9.25;;
3095;SDS011;1558;42.700;23.360;2022-08-07T10:32:33;9.27;;;8.68;;
3095;SDS011;1558;42.700;23.360;2022-08-07T10:35:21;9.15;;;8.50;;
3095;SDS011;1558;42.700;23.360;2022-08-07T10:38:17;10.32;;;9.55;;
3095;SDS011;1558;42.700;23.360;2022-08-07T10:41:14;9.75;;;9.00;;
3095;SDS011;1558;42.700;23.360;2022-08-07T10:44:14;9.45;;;8.70;;
3095;SDS011;1558;42.700;23.360;2022-08-07T10:47:04;9.20;;;8.50;;
3095;SDS011;1558;42.700;23.360;2022-08-07T10:50:07;10.02;;;9.23;;
3095;SDS011;1558;42.700;23.360;2022-08-07T10:52:44;9.55;;;8.82;;
3095;SDS011;1558;42.700;23.360;2022-08-07T10:55:19;10.65;;;9.68;;
3095;SDS011;1558;42.700;23.360;2022-08-07T10:58:10;9.93;;;9.23;;
3095;SDS011;1558;42.700;23.360;2022-08-07T11:01:03;11.13;;;10.13;;
3095;SDS011;1558;42.700;23.360;2022-08-07T11:03:50;10.60;;;9.88;;
3095;SDS011;1558;42.700;23.360;2022-08-07T11:06:46;10.23;;;9.45;;
3095;SDS011;1558;42.700;23.360;2022-08-07T11:09:19;9.05;;;8.45;;
3095;SDS011;1558;42.700;23.360;2022-08-07T11:12:12;9.43;;;8.63;;
3095;SDS011;1558;42.700;23.360;2022-08-07T11:14:59;12.13;;;10.88;;
3095;SDS011;1558;42.700;23.360;2022-08-07T11:17:42;9.50;;;8.68;;
3095;SDS011;1558;42.700;23.360;2022-08-07T11:20:20;9.13;;;8.48;;
3095;SDS011;1558;42.700;23.360;2022-08-07T11:22:54;10.57;;;8.05;;
3095;SDS011;1558;42.700;23.360;2022-08-07T11:25:29;9.38;;;8.48;;
3095;SDS011;1558;42.700;23.360;2022-08-07T11:28:16;8.82;;;8.07;;
3095;SDS011;1558;42.700;23.360;2022-08-07T11:30:52;9.40;;;8.57;;
3095;SDS011;1558;42.700;23.360;2022-08-07T11:33:33;9.93;;;9.13;;
3095;SDS011;1558;42.700;23.360;2022-08-07T11:36:39;10.18;;;9.48;;
3095;SDS011;1558;42.700;23.360;2022-08-07T11:39:19;10.95;;;10.05;;
3095;SDS011;1558;42.700;23.360;2022-08-07T11:42:19;10.23;;;9.45;;
3095;SDS011;1558;42.700;23.360;2022-08-07T11:44:57;10.63;;;9.63;;
3095;SDS011;1558;42.700;23.360;2022-08-07T11:47:40;10.95;;;10.15;;
3095;SDS011;1558;42.700;23.360;2022-08-07T11:50:59;10.23;;;9.52;;
3095;SDS011;1558;42.700;23.360;2022-08-07T11:57:07;10.38;;;9.48;;
3095;SDS011;1558;42.700;23.360;2022-08-07T11:59:46;10.10;;;9.30;;
3095;SDS011;1558;42.700;23.360;2022-08-07T12:06:19;13.27;;;12.13;;
3095;SDS011;1558;42.700;23.360;2022-08-07T12:09:18;9.77;;;8.98;;
3095;SDS011;1558;42.700;23.360;2022-08-07T12:11:52;9.55;;;8.75;;
3095;SDS011;1558;42.700;23.360;2022-08-07T12:14:46;9.30;;;8.60;;
3095;SDS011;1558;42.700;23.360;2022-08-07T12:17:28;8.93;;;8.23;;
3095;SDS011;1558;42.700;23.360;2022-08-07T12:20:02;9.38;;;8.52;;
3095;SDS011;1558;42.700;23.360;2022-08-07T12:23:08;8.98;;;8.27;;
3095;SDS011;1558;42.700;23.360;2022-08-07T12:26:03;9.43;;;8.73;;
3095;SDS011;1558;42.700;23.360;2022-08-07T12:28:57;9.18;;;8.48;;
3095;SDS011;1558;42.700;23.360;2022-08-07T12:31:35;8.93;;;8.23;;
3095;SDS011;1558;42.700;23.360;2022-08-07T12:34:28;9.00;;;8.40;;
3095;SDS011;1558;42.700;23.360;2022-08-07T12:36:59;8.60;;;8.00;;
3095;SDS011;1558;42.700;23.360;2022-08-07T12:39:44;8.25;;;7.57;;
3095;SDS011;1558;42.700;23.360;2022-08-07T12:42:17;7.68;;;7.10;;
3095;SDS011;1558;42.700;23.360;2022-08-07T12:44:53;8.68;;;7.75;;
3095;SDS011;1558;42.700;23.360;2022-08-07T12:47:26;7.60;;;7.10;;
3095;SDS011;1558;42.700;23.360;2022-08-07T12:50:05;8.48;;;7.85;;
3095;SDS011;1558;42.700;23.360;2022-08-07T12:53:03;9.45;;;8.68;;
3095;SDS011;1558;42.700;23.360;2022-08-07T12:55:49;9.18;;;8.43;;
3095;SDS011;1558;42.700;23.360;2022-08-07T12:58:30;8.82;;;8.25;;
3095;SDS011;1558;42.700;23.360;2022-08-07T13:01:05;10.00;;;9.10;;
3095;SDS011;1558;42.700;23.360;2022-08-07T13:03:55;9.93;;;9.23;;
3095;SDS011;1558;42.700;23.360;2022-08-07T13:06:43;9.40;;;8.77;;
3095;SDS011;1558;42.700;23.360;2022-08-07T13:09:41;8.75;;;8.07;;
3095;SDS011;1558;42.700;23.360;2022-08-07T13:12:42;8.80;;;8.20;;
3095;SDS011;1558;42.700;23.360;2022-08-07T13:15:33;8.93;;;8.23;;
3095;SDS011;1558;42.700;23.360;2022-08-07T13:18:12;9.57;;;8.88;;
3095;SDS011;1558;42.700;23.360;2022-08-07T13:20:56;8.85;;;8.25;;
3095;SDS011;1558;42.700;23.360;2022-08-07T13:23:31;8.48;;;7.88;;
3095;SDS011;1558;42.700;23.360;2022-08-07T13:26:31;9.20;;;8.30;;
3095;SDS011;1558;42.700;23.360;2022-08-07T13:29:10;8.80;;;8.15;;
3095;SDS011;1558;42.700;23.360;2022-08-07T13:31:47;8.60;;;7.90;;
3095;SDS011;1558;42.700;23.360;2022-08-07T13:34:29;8.10;;;7.50;;
3095;SDS011;1558;42.700;23.360;2022-08-07T13:37:12;8.50;;;7.93;;
3095;SDS011;1558;42.700;23.360;2022-08-07T13:39:49;8.15;;;7.65;;
3095;SDS011;1558;42.700;23.360;2022-08-07T13:42:47;8.15;;;7.65;;
3095;SDS011;1558;42.700;23.360;2022-08-07T13:45:17;8.38;;;7.70;;
3095;SDS011;1558;42.700;23.360;2022-08-07T13:48:08;8.65;;;7.95;;
3095;SDS011;1558;42.700;23.360;2022-08-07T13:50:58;8.70;;;8.10;;
3095;SDS011;1558;42.700;23.360;2022-08-07T13:53:49;9.63;;;8.88;;
3095;SDS011;1558;42.700;23.360;2022-08-07T13:56:28;8.98;;;8.18;;
3095;SDS011;1558;42.700;23.360;2022-08-07T13:59:06;8.50;;;7.90;;
3095;SDS011;1558;42.700;23.360;2022-08-07T14:01:43;8.30;;;7.53;;
3095;SDS011;1558;42.700;23.360;2022-08-07T14:04:24;8.85;;;8.15;;
3095;SDS011;1558;42.700;23.360;2022-08-07T14:07:02;8.25;;;7.65;;
3095;SDS011;1558;42.700;23.360;2022-08-07T14:09:35;9.82;;;9.02;;
3095;SDS011;1558;42.700;23.360;2022-08-07T14:12:28;8.52;;;7.82;;
3095;SDS011;1558;42.700;23.360;2022-08-07T14:15:19;8.73;;;8.13;;
3095;SDS011;1558;42.700;23.360;2022-08-07T14:18:01;9.18;;;8.57;;
3095;SDS011;1558;42.700;23.360;2022-08-07T14:20:49;8.43;;;7.82;;
3095;SDS011;1558;42.700;23.360;2022-08-07T14:23:21;10.18;;;9.30;;
3095;SDS011;1558;42.700;23.360;2022-08-07T14:26:13;8.52;;;7.90;;
3095;SDS011;1558;42.700;23.360;2022-08-07T14:28:57;9.95;;;9.15;;
3095;SDS011;1558;42.700;23.360;2022-08-07T14:31:49;9.18;;;8.30;;
3095;SDS011;1558;42.700;23.360;2022-08-07T14:34:26;9.48;;;8.68;;
3095;SDS011;1558;42.700;23.360;2022-08-07T14:36:56;9.85;;;8.52;;
3095;SDS011;1558;42.700;23.360;2022-08-07T14:39:28;9.32;;;8.55;;
3095;SDS011;1558;42.700;23.360;2022-08-07T14:42:21;10.00;;;9.20;;
3095;SDS011;1558;42.700;23.360;2022-08-07T14:44:52;9.35;;;8.65;;
3095;SDS011;1558;42.700;23.360;2022-08-07T14:47:25;9.93;;;9.00;;
3095;SDS011;1558;42.700;23.360;2022-08-07T14:50:00;9.52;;;8.73;;
3095;SDS011;1558;42.700;23.360;2022-08-07T14:52:39;10.10;;;9.20;;
3095;SDS011;1558;42.700;23.360;2022-08-07T14:55:07;10.23;;;9.30;;
3095;SDS011;1558;42.700;23.360;2022-08-07T14:57:45;10.35;;;9.40;;
3095;SDS011;1558;42.700;23.360;2022-08-07T15:00:25;9.77;;;9.07;;
3095;SDS011;1558;42.700;23.360;2022-08-07T15:02:56;10.50;;;9.57;;
3095;SDS011;1558;42.700;23.360;2022-08-07T15:05:46;10.15;;;9.45;;
3095;SDS011;1558;42.700;23.360;2022-08-07T15:08:31;9.80;;;9.10;;
3095;SDS011;1558;42.700;23.360;2022-08-07T15:11:18;9.48;;;8.70;;
3095;SDS011;1558;42.700;23.360;2022-08-07T15:14:10;10.45;;;9.65;;
3095;SDS011;1558;42.700;23.360;2022-08-07T15:16:43;10.25;;;9.55;;
3095;SDS011;1558;42.700;23.360;2022-08-07T15:19:33;9.35;;;8.70;;
3095;SDS011;1558;42.700;23.360;2022-08-07T15:22:26;9.88;;;9.07;;
3095;SDS011;1558;42.700;23.360;2022-08-07T15:25:05;10.63;;;9.68;;
3095;SDS011;1558;42.700;23.360;2022-08-07T15:27:47;9.23;;;8.52;;
3095;SDS011;1558;42.700;23.360;2022-08-07T15:30:38;10.07;;;9.23;;
3095;SDS011;1558;42.700;23.360;2022-08-07T15:33:26;9.70;;;8.88;;
3095;SDS011;1558;42.700;23.360;2022-08-07T15:36:15;10.82;;;9.82;;
3095;SDS011;1558;42.700;23.360;2022-08-07T15:39:10;10.02;;;9.23;;
3095;SDS011;1558;42.700;23.360;2022-08-07T15:41:55;9.93;;;9.23;;
3095;SDS011;1558;42.700;23.360;2022-08-07T15:44:47;9.80;;;9.00;;
3095;SDS011;1558;42.700;23.360;2022-08-07T15:47:17;9.70;;;8.85;;
3095;SDS011;1558;42.700;23.360;2022-08-07T15:50:08;10.32;;;9.40;;
3095;SDS011;1558;42.700;23.360;2022-08-07T15:53:03;10.10;;;9.30;;
3095;SDS011;1558;42.700;23.360;2022-08-07T15:55:37;11.02;;;10.02;;
3095;SDS011;1558;42.700;23.360;2022-08-07T15:58:31;10.88;;;9.98;;
3095;SDS011;1558;42.700;23.360;2022-08-07T16:01:04;9.80;;;9.10;;
3095;SDS011;1558;42.700;23.360;2022-08-07T16:03:47;9.82;;;8.98;;
3095;SDS011;1558;42.700;23.360;2022-08-07T16:06:26;9.98;;;8.98;;
3095;SDS011;1558;42.700;23.360;2022-08-07T16:08:57;9.57;;;8.73;;
3095;SDS011;1558;42.700;23.360;2022-08-07T16:11:41;9.75;;;8.93;;
3095;SDS011;1558;42.700;23.360;2022-08-07T16:14:28;10.00;;;8.93;;
3095;SDS011;1558;42.700;23.360;2022-08-07T16:17:16;10.88;;;9.82;;
3095;SDS011;1558;42.700;23.360;2022-08-07T16:20:26;11.55;;;9.73;;
3095;SDS011;1558;42.700;23.360;2022-08-07T16:23:16;10.68;;;9.88;;
3095;SDS011;1558;42.700;23.360;2022-08-07T16:26:11;10.35;;;9.55;;
3095;SDS011;1558;42.700;23.360;2022-08-07T16:29:02;9.75;;;8.80;;
3095;SDS011;1558;42.700;23.360;2022-08-07T16:31:57;10.52;;;9.73;;
3095;SDS011;1558;42.700;23.360;2022-08-07T16:34:33;10.55;;;9.52;;
3095;SDS011;1558;42.700;23.360;2022-08-07T16:40:35;12.18;;;11.00;;
3095;SDS011;1558;42.700;23.360;2022-08-07T16:43:34;12.05;;;10.80;;
3095;SDS011;1558;42.700;23.360;2022-08-07T16:46:43;12.63;;;11.52;;
3095;SDS011;1558;42.700;23.360;2022-08-07T16:49:39;12.63;;;11.52;;
3095;SDS011;1558;42.700;23.360;2022-08-07T16:52:58;20.30;;;18.50;;
3095;SDS011;1558;42.700;23.360;2022-08-07T16:56:04;16.45;;;14.85;;
3095;SDS011;1558;42.700;23.360;2022-08-07T16:58:43;13.25;;;11.85;;
3095;SDS011;1558;42.700;23.360;2022-08-07T17:01:46;11.10;;;10.20;;
3095;SDS011;1558;42.700;23.360;2022-08-07T17:04:27;12.77;;;11.73;;
3095;SDS011;1558;42.700;23.360;2022-08-07T17:07:27;12.35;;;11.35;;
3095;SDS011;1558;42.700;23.360;2022-08-07T17:10:28;10.02;;;9.13;;
3095;SDS011;1558;42.700;23.360;2022-08-07T17:13:03;9.18;;;8.38;;
3095;SDS011;1558;42.700;23.360;2022-08-07T17:16:20;9.20;;;8.30;;
3095;SDS011;1558;42.700;23.360;2022-08-07T17:18:59;8.82;;;8.13;;
3095;SDS011;1558;42.700;23.360;2022-08-07T17:21:32;9.10;;;8.30;;
3095;SDS011;1558;42.700;23.360;2022-08-07T17:24:19;10.57;;;9.48;;
3095;SDS011;1558;42.700;23.360;2022-08-07T17:27:01;8.18;;;7.57;;
3095;SDS011;1558;42.700;23.360;2022-08-07T17:29:38;8.95;;;8.15;;
3095;SDS011;1558;42.700;23.360;2022-08-07T17:32:55;9.50;;;8.80;;
3095;SDS011;1558;42.700;23.360;2022-08-07T17:35:56;10.52;;;9.63;;
3095;SDS011;1558;42.700;23.360;2022-08-07T17:38:28;10.82;;;9.93;;
3095;SDS011;1558;42.700;23.360;2022-08-07T17:41:04;9.88;;;9.07;;
3095;SDS011;1558;42.700;23.360;2022-08-07T17:43:57;10.88;;;9.98;;
3095;SDS011;1558;42.700;23.360;2022-08-07T17:46:36;9.82;;;9.02;;
3095;SDS011;1558;42.700;23.360;2022-08-07T17:49:18;11.55;;;10.55;;
3095;SDS011;1558;42.700;23.360;2022-08-07T17:51:54;10.60;;;9.82;;
3095;SDS011;1558;42.700;23.360;2022-08-07T17:54:27;10.65;;;9.57;;
3095;SDS011;1558;42.700;23.360;2022-08-07T17:57:20;11.15;;;10.25;;
3095;SDS011;1558;42.700;23.360;2022-08-07T18:00:16;11.10;;;10.18;;
3095;SDS011;1558;42.700;23.360;2022-08-07T18:03:00;10.77;;;9.77;;
3095;SDS011;1558;42.700;23.360;2022-08-07T18:05:44;10.82;;;9.93;;
3095;SDS011;1558;42.700;23.360;2022-08-07T18:08:30;11.20;;;10.30;;
3095;SDS011;1558;42.700;23.360;2022-08-07T18:11:23;11.00;;;10.15;;
3095;SDS011;1558;42.700;23.360;2022-08-07T18:14:17;10.73;;;9.82;;
3095;SDS011;1558;42.700;23.360;2022-08-07T18:16:51;11.82;;;10.82;;
3095;SDS011;1558;42.700;23.360;2022-08-07T18:19:28;10.98;;;10.18;;
3095;SDS011;1558;42.700;23.360;2022-08-07T18:22:27;12.27;;;11.27;;
3095;SDS011;1558;42.700;23.360;2022-08-07T18:25:01;11.95;;;10.85;;
3095;SDS011;1558;42.700;23.360;2022-08-07T18:28:10;12.05;;;11.05;;
3095;SDS011;1558;42.700;23.360;2022-08-07T18:31:05;11.63;;;10.52;;
3095;SDS011;1558;42.700;23.360;2022-08-07T18:36:58;10.55;;;9.75;;
3095;SDS011;1558;42.700;23.360;2022-08-07T18:40:06;10.45;;;9.57;;
3095;SDS011;1558;42.700;23.360;2022-08-07T18:43:08;12.35;;;11.32;;
3095;SDS011;1558;42.700;23.360;2022-08-07T18:45:44;11.75;;;10.75;;
3095;SDS011;1558;42.700;23.360;2022-08-07T18:48:41;12.40;;;11.32;;
3095;SDS011;1558;42.700;23.360;2022-08-07T18:51:33;11.88;;;10.77;;
3095;SDS011;1558;42.700;23.360;2022-08-07T18:54:29;13.25;;;12.15;;
3095;SDS011;1558;42.700;23.360;2022-08-07T18:57:11;11.25;;;10.20;;
3095;SDS011;1558;42.700;23.360;2022-08-07T19:00:00;11.13;;;10.23;;
3095;SDS011;1558;42.700;23.360;2022-08-07T19:02:57;12.00;;;11.10;;
3095;SDS011;1558;42.700;23.360;2022-08-07T19:05:41;12.50;;;11.20;;
3095;SDS011;1558;42.700;23.360;2022-08-07T19:08:32;13.88;;;12.68;;
3095;SDS011;1558;42.700;23.360;2022-08-07T19:11:13;11.85;;;10.75;;
3095;SDS011;1558;42.700;23.360;2022-08-07T19:14:08;11.82;;;10.93;;
3095;SDS011;1558;42.700;23.360;2022-08-07T19:16:45;11.02;;;10.23;;
3095;SDS011;1558;42.700;23.360;2022-08-07T19:19:37;11.88;;;10.82;;
3095;SDS011;1558;42.700;23.360;2022-08-07T19:22:16;11.10;;;10.20;;
3095;SDS011;1558;42.700;23.360;2022-08-07T19:24:57;10.35;;;9.45;;
3095;SDS011;1558;42.700;23.360;2022-08-07T19:27:34;10.80;;;9.90;;
3095;SDS011;1558;42.700;23.360;2022-08-07T19:30:30;11.13;;;10.05;;
3095;SDS011;1558;42.700;23.360;2022-08-07T19:33:20;11.20;;;10.20;;
3095;SDS011;1558;42.700;23.360;2022-08-07T19:36:00;13.55;;;12.30;;
3095;SDS011;1558;42.700;23.360;2022-08-07T19:38:34;11.73;;;10.77;;
3095;SDS011;1558;42.700;23.360;2022-08-07T19:41:20;14.18;;;12.90;;
3095;SDS011;1558;42.700;23.360;2022-08-07T19:44:12;11.75;;;10.85;;
3095;SDS011;1558;42.700;23.360;2022-08-07T19:46:51;11.30;;;10.40;;
3095;SDS011;1558;42.700;23.360;2022-08-07T19:49:23;10.90;;;9.95;;
3095;SDS011;1558;42.700;23.360;2022-08-07T19:52:12;10.52;;;9.63;;
3095;SDS011;1558;42.700;23.360;2022-08-07T19:54:44;11.02;;;10.20;;
3095;SDS011;1558;42.700;23.360;2022-08-07T19:57:23;11.07;;;10.10;;
3095;SDS011;1558;42.700;23.360;2022-08-07T20:00:14;12.63;;;11.40;;
3095;SDS011;1558;42.700;23.360;2022-08-07T20:03:02;11.82;;;10.90;;
3095;SDS011;1558;42.700;23.360;2022-08-07T20:05:54;11.68;;;10.60;;
3095;SDS011;1558;42.700;23.360;2022-08-07T20:08:28;12.00;;;10.85;;
3095;SDS011;1558;42.700;23.360;2022-08-07T20:10:59;14.20;;;12.88;;
3095;SDS011;1558;42.700;23.360;2022-08-07T20:13:37;12.38;;;11.27;;
3095;SDS011;1558;42.700;23.360;2022-08-07T20:16:12;11.15;;;10.25;;
3095;SDS011;1558;42.700;23.360;2022-08-07T20:19:03;11.60;;;10.60;;
3095;SDS011;1558;42.700;23.360;2022-08-07T20:21:36;11.40;;;10.50;;
3095;SDS011;1558;42.700;23.360;2022-08-07T20:24:13;11.25;;;10.23;;
3095;SDS011;1558;42.700;23.360;2022-08-07T20:26:48;11.93;;;10.70;;
3095;SDS011;1558;42.700;23.360;2022-08-07T20:29:21;12.25;;;11.25;;
3095;SDS011;1558;42.700;23.360;2022-08-07T20:32:16;10.95;;;10.05;;
3095;SDS011;1558;42.700;23.360;2022-08-07T20:34:52;11.18;;;10.27;;
3095;SDS011;1558;42.700;23.360;2022-08-07T20:37:24;10.80;;;9.90;;
3095;SDS011;1558;42.700;23.360;2022-08-07T20:40:13;10.73;;;9.80;;
3095;SDS011;1558;42.700;23.360;2022-08-07T20:42:59;10.85;;;10.05;;
3095;SDS011;1558;42.700;23.360;2022-08-07T20:45:40;11.25;;;10.43;;
3095;SDS011;1558;42.700;23.360;2022-08-07T20:48:29;11.77;;;10.63;;
3095;SDS011;1558;42.700;23.360;2022-08-07T20:51:03;10.70;;;9.85;;
3095;SDS011;1558;42.700;23.360;2022-08-07T20:53:35;10.90;;;9.80;;
3095;SDS011;1558;42.700;23.360;2022-08-07T20:56:26;10.80;;;9.73;;
3095;SDS011;1558;42.700;23.360;2022-08-07T20:59:00;11.30;;;10.30;;
3095;SDS011;1558;42.700;23.360;2022-08-07T21:01:31;16.35;;;14.27;;
3095;SDS011;1558;42.700;23.360;2022-08-07T21:04:21;13.23;;;11.95;;
3095;SDS011;1558;42.700;23.360;2022-08-07T21:06:55;14.45;;;13.25;;
3095;SDS011;1558;42.700;23.360;2022-08-07T21:09:39;13.23;;;12.13;;
3095;SDS011;1558;42.700;23.360;2022-08-07T21:12:26;11.43;;;10.43;;
3095;SDS011;1558;42.700;23.360;2022-08-07T21:14:58;9.98;;;9.23;;
3095;SDS011;1558;42.700;23.360;2022-08-07T21:17:33;11.93;;;10.82;;
3095;SDS011;1558;42.700;23.360;2022-08-07T21:20:23;9.90;;;9.00;;
3095;SDS011;1558;42.700;23.360;2022-08-07T21:23:00;10.75;;;9.75;;
3095;SDS011;1558;42.700;23.360;2022-08-07T21:25:40;10.07;;;9.23;;
3095;SDS011;1558;42.700;23.360;2022-08-07T21:28:23;10.25;;;9.45;;
3095;SDS011;1558;42.700;23.360;2022-08-07T21:31:18;9.77;;;9.05;;
3095;SDS011;1558;42.700;23.360;2022-08-07T21:34:13;10.70;;;9.70;;
3095;SDS011;1558;42.700;23.360;2022-08-07T21:37:02;12.38;;;11.18;;
3095;SDS011;1558;42.700;23.360;2022-08-07T21:39:38;13.05;;;11.65;;
3095;SDS011;1558;42.700;23.360;2022-08-07T21:42:22;12.35;;;11.35;;
3095;SDS011;1558;42.700;23.360;2022-08-07T21:45:14;11.32;;;10.35;;
3095;SDS011;1558;42.700;23.360;2022-08-07T21:48:10;11.52;;;10.63;;
3095;SDS011;1558;42.700;23.360;2022-08-07T21:50:58;11.60;;;10.60;;
3095;SDS011;1558;42.700;23.360;2022-08-07T21:53:46;11.23;;;10.23;;
3095;SDS011;1558;42.700;23.360;2022-08-07T21:56:23;10.93;;;10.00;;
3095;SDS011;1558;42.700;23.360;2022-08-07T21:59:03;11.82;;;10.82;;
3095;SDS011;1558;42.700;23.360;2022-08-07T22:01:41;11.60;;;10.55;;
3095;SDS011;1558;42.700;23.360;2022-08-07T22:04:34;11.10;;;10.20;;
3095;SDS011;1558;42.700;23.360;2022-08-07T22:07:19;10.93;;;10.02;;
3095;SDS011;1558;42.700;23.360;2022-08-07T22:10:08;11.10;;;10.20;;
3095;SDS011;1558;42.700;23.360;2022-08-07T22:12:43;10.77;;;9.90;;
3095;SDS011;1558;42.700;23.360;2022-08-07T22:15:20;11.50;;;10.45;;
3095;SDS011;1558;42.700;23.360;2022-08-07T22:18:13;12.05;;;11.05;;
3095;SDS011;1558;42.700;23.360;2022-08-07T22:20:50;12.80;;;11.57;;
3095;SDS011;1558;42.700;23.360;2022-08-07T22:23:23;12.88;;;11.68;;
3095;SDS011;1558;42.700;23.360;2022-08-07T22:26:00;13.13;;;12.13;;
3095;SDS011;1558;42.700;23.360;2022-08-07T22:28:35;13.82;;;12.43;;
3095;SDS011;1558;42.700;23.360;2022-08-07T22:31:21;13.18;;;11.82;;
3095;SDS011;1558;42.700;23.360;2022-08-07T22:34:16;13.18;;;12.02;;
3095;SDS011;1558;42.700;23.360;2022-08-07T22:37:01;13.85;;;12.70;;
3095;SDS011;1558;42.700;23.360;2022-08-07T22:39:41;13.43;;;12.23;;
3095;SDS011;1558;42.700;23.360;2022-08-07T22:42:19;16.77;;;13.63;;
3095;SDS011;1558;42.700;23.360;2022-08-07T22:44:53;12.43;;;11.45;;
3095;SDS011;1558;42.700;23.360;2022-08-07T22:47:34;14.90;;;13.63;;
3095;SDS011;1558;42.700;23.360;2022-08-07T22:50:26;13.52;;;12.23;;
3095;SDS011;1558;42.700;23.360;2022-08-07T22:56:26;12.50;;;11.50;;
3095;SDS011;1558;42.700;23.360;2022-08-07T22:59:09;13.05;;;12.02;;
3095;SDS011;1558;42.700;23.360;2022-08-07T23:01:55;13.50;;;12.10;;
3095;SDS011;1558;42.700;23.360;2022-08-07T23:07:45;14.23;;;13.00;;
3095;SDS011;1558;42.700;23.360;2022-08-07T23:10:23;13.45;;;12.35;;
3095;SDS011;1558;42.700;23.360;2022-08-07T23:13:16;13.57;;;12.48;;
3095;SDS011;1558;42.700;23.360;2022-08-07T23:16:18;15.98;;;14.63;;
3095;SDS011;1558;42.700;23.360;2022-08-07T23:19:16;16.17;;;14.88;;
3095;SDS011;1558;42.700;23.360;2022-08-07T23:22:21;14.10;;;13.05;;
3095;SDS011;1558;42.700;23.360;2022-08-07T23:25:02;14.63;;;13.43;;
3095;SDS011;1558;42.700;23.360;2022-08-07T23:27:48;14.65;;;13.45;;
3095;SDS011;1558;42.700;23.360;2022-08-07T23:30:50;14.30;;;13.10;;
3095;SDS011;1558;42.700;23.360;2022-08-07T23:33:42;14.77;;;13.57;;
3095;SDS011;1558;42.700;23.360;2022-08-07T23:36:51;14.20;;;12.82;;
3095;SDS011;1558;42.700;23.360;2022-08-07T23:39:47;15.02;;;13.60;;
3095;SDS011;1558;42.700;23.360;2022-08-07T23:42:28;13.45;;;12.30;;
3095;SDS011;1558;42.700;23.360;2022-08-07T23:45:25;14.23;;;13.02;;
3095;SDS011;1558;42.700;23.360;2022-08-07T23:48:23;14.18;;;12.88;;
3095;SDS011;1558;42.700;23.360;2022-08-07T23:51:08;14.63;;;13.32;;
3095;SDS011;1558;42.700;23.360;2022-08-07T23:54:05;14.20;;;13.00;;
3095;SDS011;1558;42.700;23.360;2022-08-07T23:56:55;13.60;;;12.50;;
3095;SDS011;1558;42.700;23.360;2022-08-07T23:59:37;14.52;;;13.18;;
